createdAt,value
2023-12-30T00:02:52.717Z,57.33
2023-12-30T00:05:55.179Z,65.45
2023-12-30T00:08:57.673Z,60.58
2023-12-30T00:12:02.496Z,59.20
2023-12-30T00:15:05.402Z,63.95
2023-12-30T00:18:08.311Z,62.97
2023-12-30T00:21:10.875Z,61.45
2023-12-30T00:24:13.362Z,71.50
2023-12-30T00:27:18.114Z,67.65
2023-12-30T00:30:20.635Z,67.10
2023-12-30T00:33:23.275Z,67.00
2023-12-30T00:36:31.180Z,71.60
2023-12-30T00:39:33.651Z,69.82
2023-12-30T00:42:36.177Z,70.55
2023-12-30T00:45:38.692Z,67.55
2023-12-30T00:48:44.593Z,73.65
2023-12-30T00:51:50.122Z,73.10
2023-12-30T00:54:57.750Z,66.95
2023-12-30T00:58:00.400Z,67.05
2023-12-30T01:01:03.113Z,67.43
2023-12-30T01:04:05.735Z,62.42
2023-12-30T01:07:12.140Z,57.90
2023-12-30T01:10:18.056Z,68.55
2023-12-30T01:13:22.764Z,64.18
2023-12-30T01:16:26.335Z,56.92
2023-12-30T01:19:28.896Z,55.80
2023-12-30T01:22:31.533Z,37.60
2023-12-30T01:25:34.105Z,46.72
2023-12-30T01:28:39.469Z,37.13
2023-12-30T01:31:42.188Z,40.63
2023-12-30T01:34:44.940Z,46.63
2023-12-30T01:37:48.158Z,30.40
2023-12-30T01:40:54.338Z,30.40
2023-12-30T01:43:59.613Z,30.80
2023-12-30T01:47:02.670Z,36.53
2023-12-30T01:50:08.780Z,30.48
2023-12-30T01:53:13.725Z,34.90
2023-12-30T01:56:18.504Z,37.83
2023-12-30T01:59:21.252Z,35.88
2023-12-30T02:02:24.035Z,36.33
2023-12-30T02:05:27.169Z,37.08
2023-12-30T02:08:29.722Z,37.95
2023-12-30T02:11:32.233Z,33.10
2023-12-30T02:14:34.878Z,31.75
2023-12-30T02:17:37.673Z,29.45
2023-12-30T02:20:42.816Z,36.80
2023-12-30T02:23:45.658Z,30.67
2023-12-30T02:26:53.328Z,34.03
2023-12-30T02:29:58.913Z,33.17
2023-12-30T02:33:01.731Z,30.73
2023-12-30T02:36:04.788Z,35.08
2023-12-30T02:39:07.711Z,30.80
2023-12-30T02:42:10.212Z,29.42
2023-12-30T02:45:15.726Z,24.40
2023-12-30T02:48:19.142Z,27.05
2023-12-30T02:51:23.833Z,29.88
2023-12-30T02:54:26.418Z,29.83
2023-12-30T02:57:31.038Z,22.88
2023-12-30T03:00:33.475Z,22.40
2023-12-30T03:03:38.083Z,24.33
2023-12-30T03:06:40.591Z,29.60
2023-12-30T03:09:43.051Z,32.83
2023-12-30T03:12:45.481Z,26.23
2023-12-30T03:18:51.667Z,30.15
2023-12-30T03:21:55.034Z,27.95
2023-12-30T03:24:57.633Z,28.83
2023-12-30T03:28:00.131Z,30.17
2023-12-30T03:31:05.361Z,25.45
2023-12-30T03:34:08.307Z,32.95
2023-12-30T03:37:18.268Z,29.45
2023-12-30T03:40:20.779Z,30.90
2023-12-30T03:43:23.343Z,30.63
2023-12-30T03:46:25.928Z,34.95
2023-12-30T03:49:28.772Z,33.90
2023-12-30T03:52:31.636Z,31.73
2023-12-30T03:55:36.310Z,31.25
2023-12-30T03:58:39.226Z,29.63
2023-12-30T04:01:45.033Z,30.83
2023-12-30T04:04:48.309Z,31.40
2023-12-30T04:07:53.234Z,38.65
2023-12-30T04:10:55.653Z,29.30
2023-12-30T04:13:58.122Z,30.13
2023-12-30T04:17:00.609Z,33.40
2023-12-30T04:20:03.718Z,28.02
2023-12-30T04:23:06.485Z,30.15
2023-12-30T04:26:09.761Z,30.60
2023-12-30T04:29:12.481Z,33.17
2023-12-30T04:32:14.942Z,31.00
2023-12-30T04:35:17.422Z,35.50
2023-12-30T04:38:21.123Z,27.52
2023-12-30T04:41:26.098Z,32.53
2023-12-30T04:44:28.537Z,32.33
2023-12-30T04:47:33.359Z,34.92
2023-12-30T04:50:36.353Z,32.67
2023-12-30T04:53:38.879Z,35.10
2023-12-30T04:56:41.499Z,33.55
2023-12-30T04:59:46.623Z,32.10
2023-12-30T05:02:49.255Z,37.83
2023-12-30T05:05:52.623Z,31.05
2023-12-30T05:08:55.268Z,33.33
2023-12-30T05:11:57.822Z,34.50
2023-12-30T05:15:02.574Z,31.42
2023-12-30T05:18:05.703Z,36.20
2023-12-30T05:21:17.854Z,30.00
2023-12-30T05:24:20.388Z,34.53
2023-12-30T05:27:23.089Z,31.40
2023-12-30T05:30:30.191Z,35.38
2023-12-30T05:33:35.227Z,29.25
2023-12-30T05:36:38.947Z,28.85
2023-12-30T05:39:41.524Z,32.33
2023-12-30T05:42:43.974Z,33.45
2023-12-30T05:45:46.522Z,32.95
2023-12-30T05:48:49.077Z,32.53
2023-12-30T05:51:51.932Z,33.83
2023-12-30T05:54:54.623Z,32.08
2023-12-30T05:57:57.049Z,30.65
2023-12-30T06:00:59.575Z,33.60
2023-12-30T06:04:02.315Z,38.03
2023-12-30T06:07:07.432Z,30.60
2023-12-30T06:10:10.388Z,30.50
2023-12-30T06:13:18.760Z,31.33
2023-12-30T06:16:23.847Z,30.90
2023-12-30T06:19:29.048Z,30.55
2023-12-30T06:22:37.466Z,31.33
2023-12-30T06:25:40.630Z,31.55
2023-12-30T06:28:51.872Z,37.30
2023-12-30T06:32:00.330Z,32.97
2023-12-30T06:35:33.577Z,35.67
2023-12-30T06:39:25.990Z,32.47
2023-12-30T06:42:31.006Z,29.55
2023-12-30T06:45:33.477Z,29.73
2023-12-30T06:48:36.063Z,34.38
2023-12-30T06:51:38.538Z,30.08
2023-12-30T06:54:41.928Z,31.50
2023-12-30T06:57:44.744Z,34.47
2023-12-30T07:00:47.262Z,34.63
2023-12-30T07:03:49.757Z,33.75
2023-12-30T07:06:52.485Z,36.00
2023-12-30T07:09:55.100Z,33.53
2023-12-30T07:12:58.160Z,33.88
2023-12-30T07:16:00.915Z,39.95
2023-12-30T07:19:03.481Z,34.70
2023-12-30T07:22:06.089Z,31.25
2023-12-30T07:25:11.114Z,35.60
2023-12-30T07:28:16.170Z,34.28
2023-12-30T07:31:21.119Z,34.08
2023-12-30T07:34:23.760Z,35.58
2023-12-30T07:37:26.321Z,26.08
2023-12-30T07:40:31.203Z,30.88
2023-12-30T07:43:36.857Z,29.08
2023-12-30T07:46:41.611Z,36.33
2023-12-30T07:49:44.228Z,35.55
2023-12-30T07:52:46.998Z,32.58
2023-12-30T07:55:49.599Z,39.80
2023-12-30T07:58:52.171Z,36.42
2023-12-30T08:01:57.685Z,30.92
2023-12-30T08:05:01.801Z,31.90
2023-12-30T08:08:04.882Z,33.45
2023-12-30T08:11:07.461Z,36.67
2023-12-30T08:14:10.717Z,38.80
2023-12-30T08:17:13.751Z,37.55
2023-12-30T08:20:16.524Z,39.33
2023-12-30T08:23:18.985Z,33.83
2023-12-30T08:26:26.722Z,36.47
2023-12-30T08:29:34.943Z,35.55
2023-12-30T08:32:38.073Z,35.50
2023-12-30T08:35:40.677Z,34.58
2023-12-30T08:38:43.508Z,32.47
2023-12-30T08:41:46.178Z,34.60
2023-12-30T08:44:48.852Z,37.10
2023-12-30T08:47:53.839Z,35.25
2023-12-30T08:50:56.461Z,39.83
2023-12-30T08:53:58.973Z,38.80
2023-12-30T08:57:01.712Z,38.40
2023-12-30T09:00:11.092Z,38.70
2023-12-30T09:03:17.846Z,34.80
2023-12-30T09:06:22.140Z,36.42
2023-12-30T09:09:24.640Z,38.13
2023-12-30T09:12:27.114Z,35.92
2023-12-30T09:15:37.170Z,37.03
2023-12-30T09:18:44.351Z,40.00
2023-12-30T09:21:47.024Z,44.72
2023-12-30T09:24:50.129Z,41.20
2023-12-30T09:27:52.627Z,37.90
2023-12-30T09:30:57.320Z,38.40
2023-12-30T09:34:00.372Z,38.10
2023-12-30T09:37:03.055Z,38.47
2023-12-30T09:40:10.009Z,36.53
2023-12-30T09:43:12.658Z,34.47
2023-12-30T09:46:15.908Z,34.78
2023-12-30T09:49:18.671Z,37.08
2023-12-30T09:52:23.643Z,32.22
2023-12-30T09:55:28.462Z,35.35
2023-12-30T09:58:30.936Z,38.95
2023-12-30T10:01:35.163Z,37.17
2023-12-30T10:04:40.022Z,37.38
2023-12-30T10:07:51.782Z,34.97
2023-12-30T10:10:58.665Z,36.35
2023-12-30T10:14:04.698Z,35.78
2023-12-30T10:17:07.267Z,36.17
2023-12-30T10:20:11.777Z,39.55
2023-12-30T10:23:15.457Z,38.20
2023-12-30T10:26:19.237Z,36.67
2023-12-30T10:29:22.186Z,35.70
2023-12-30T10:32:24.730Z,38.55
2023-12-30T10:35:29.773Z,39.13
2023-12-30T10:38:32.226Z,39.30
2023-12-30T10:41:34.610Z,38.58
2023-12-30T10:44:39.459Z,37.47
2023-12-30T10:47:42.190Z,35.50
2023-12-30T10:50:44.827Z,44.22
2023-12-30T10:53:49.105Z,40.08
2023-12-30T10:56:55.857Z,37.75
2023-12-30T10:59:58.621Z,35.45
2023-12-30T11:03:04.284Z,40.35
2023-12-30T11:06:28.503Z,41.15
2023-12-30T11:09:31.161Z,41.97
2023-12-30T11:12:33.800Z,42.05
2023-12-30T11:15:39.507Z,37.53
2023-12-30T11:18:52.848Z,43.35
2023-12-30T11:21:59.522Z,41.28
2023-12-30T11:25:02.025Z,42.88
2023-12-30T11:28:20.264Z,38.83
2023-12-30T11:31:34.028Z,43.35
2023-12-30T11:34:36.646Z,47.33
2023-12-30T11:37:40.718Z,50.50
2023-12-30T11:40:43.972Z,47.75
2023-12-30T11:43:46.696Z,51.33
2023-12-30T11:46:51.733Z,47.95
2023-12-30T11:50:12.998Z,49.08
2023-12-30T11:53:20.589Z,46.40
2023-12-30T11:56:23.621Z,45.35
2023-12-30T11:59:26.481Z,45.33
2023-12-30T12:02:29.745Z,41.42
2023-12-30T12:05:34.687Z,42.03
2023-12-30T12:08:41.289Z,47.05
2023-12-30T12:11:43.871Z,42.47
2023-12-30T12:14:51.299Z,43.22
2023-12-30T12:17:53.906Z,48.72
2023-12-30T12:20:56.429Z,49.63
2023-12-30T12:23:58.891Z,46.80
2023-12-30T12:27:04.511Z,44.45
2023-12-30T12:30:10.566Z,39.60
2023-12-30T12:33:14.324Z,36.60
2023-12-30T12:36:20.677Z,38.15
2023-12-30T12:39:25.663Z,35.95
2023-12-30T12:42:31.038Z,35.17
2023-12-30T12:45:34.087Z,32.72
2023-12-30T12:48:36.756Z,35.38
2023-12-30T12:51:40.719Z,37.35
2023-12-30T12:54:46.630Z,33.47
2023-12-30T12:57:49.091Z,33.05
2023-12-30T13:00:51.574Z,30.58
2023-12-30T13:03:57.139Z,29.55
2023-12-30T13:06:59.747Z,29.80
2023-12-30T13:10:22.470Z,30.58
2023-12-30T13:13:25.067Z,28.50
2023-12-30T13:16:27.753Z,25.90
2023-12-30T13:19:30.447Z,23.88
2023-12-30T13:22:35.417Z,25.08
2023-12-30T13:25:39.536Z,24.45
2023-12-30T13:28:43.263Z,26.60
2023-12-30T13:31:47.320Z,23.17
2023-12-30T13:34:52.911Z,23.52
2023-12-30T13:37:56.936Z,22.48
2023-12-30T13:41:01.798Z,23.55
2023-12-30T13:44:10.815Z,23.80
2023-12-30T13:50:49.217Z,24.77
2023-12-30T13:53:54.764Z,26.58
2023-12-30T13:57:12.617Z,24.75
2023-12-30T14:00:17.299Z,22.33
2023-12-30T14:03:24.603Z,22.50
2023-12-30T14:06:35.078Z,29.23
2023-12-30T14:09:55.262Z,32.58
2023-12-30T14:13:02.608Z,28.38
2023-12-30T14:16:07.161Z,28.67
2023-12-30T14:19:10.395Z,28.63
2023-12-30T14:22:13.529Z,33.13
2023-12-30T14:25:18.377Z,32.53
2023-12-30T14:28:23.279Z,34.40
2023-12-30T14:31:25.753Z,33.97
2023-12-30T14:34:28.362Z,29.40
2023-12-30T14:37:31.263Z,34.17
2023-12-30T14:40:33.786Z,32.83
2023-12-30T14:43:36.555Z,35.22
2023-12-30T14:46:39.140Z,30.17
2023-12-30T14:49:42.534Z,36.42
2023-12-30T14:52:45.307Z,33.75
2023-12-30T14:55:49.414Z,35.83
2023-12-30T14:58:52.173Z,40.40
2023-12-30T15:01:56.180Z,36.20
2023-12-30T15:05:02.050Z,32.47
2023-12-30T15:08:05.365Z,36.05
2023-12-30T15:14:12.896Z,30.85
2023-12-30T15:17:15.427Z,35.13
2023-12-30T15:20:20.233Z,35.42
2023-12-30T15:23:22.906Z,31.38
2023-12-30T15:26:25.451Z,32.88
2023-12-30T15:29:33.146Z,35.45
2023-12-30T15:32:39.370Z,32.70
2023-12-30T15:35:43.048Z,32.80
2023-12-30T15:38:45.734Z,32.53
2023-12-30T15:41:48.594Z,32.63
2023-12-30T15:44:51.137Z,32.53
2023-12-30T15:47:53.766Z,33.17
2023-12-30T15:50:56.432Z,33.65
2023-12-30T15:53:59.540Z,33.58
2023-12-30T15:57:04.961Z,35.20
2023-12-30T16:00:09.776Z,42.60
2023-12-30T16:03:14.870Z,39.05
2023-12-30T16:06:20.076Z,35.15
2023-12-30T16:09:22.550Z,36.28
2023-12-30T16:12:27.403Z,36.75
2023-12-30T16:15:32.540Z,39.25
2023-12-30T16:18:35.937Z,36.15
2023-12-30T16:21:38.674Z,34.67
2023-12-30T16:24:41.197Z,40.25
2023-12-30T16:27:48.414Z,41.40
2023-12-30T16:30:51.696Z,35.10
2023-12-30T16:33:56.511Z,39.22
2023-12-30T16:37:01.623Z,40.90
2023-12-30T16:40:07.266Z,40.65
2023-12-30T16:43:09.859Z,39.92
2023-12-30T16:46:15.027Z,37.05
2023-12-30T16:49:17.556Z,36.00
2023-12-30T16:52:20.738Z,47.53
2023-12-30T16:55:27.130Z,43.70
2023-12-30T16:58:32.142Z,38.00
2023-12-30T17:01:40.503Z,41.35
2023-12-30T17:04:43.523Z,41.47
2023-12-30T17:07:48.489Z,39.80
2023-12-30T17:10:53.341Z,44.20
2023-12-30T17:13:55.906Z,60.88
2023-12-30T17:16:58.394Z,61.97
2023-12-30T17:20:04.077Z,66.03
2023-12-30T17:23:09.652Z,63.85
2023-12-30T17:26:13.345Z,62.30
2023-12-30T17:29:18.404Z,57.63
2023-12-30T17:32:21.788Z,57.25
2023-12-30T17:35:29.783Z,51.53
2023-12-30T17:38:32.494Z,50.25
2023-12-30T17:41:35.065Z,45.78
2023-12-30T17:44:37.485Z,44.78
2023-12-30T17:47:40.107Z,46.83
2023-12-30T17:50:45.448Z,39.83
2023-12-30T17:53:48.190Z,40.13
2023-12-30T17:56:50.857Z,38.20
2023-12-30T17:59:55.928Z,39.90
2023-12-30T18:02:58.627Z,40.42
2023-12-30T18:06:01.405Z,42.05
2023-12-30T18:09:07.001Z,38.78
2023-12-30T18:12:12.256Z,40.60
2023-12-30T18:15:15.970Z,36.08
2023-12-30T18:21:30.303Z,35.95
2023-12-30T18:24:32.899Z,43.53
2023-12-30T18:27:40.463Z,48.42
2023-12-30T18:30:46.102Z,49.95
2023-12-30T18:33:48.662Z,45.00
2023-12-30T18:36:53.415Z,46.42
2023-12-30T18:39:55.902Z,48.30
2023-12-30T18:42:59.107Z,43.13
2023-12-30T18:46:02.508Z,44.38
2023-12-30T18:49:31.173Z,45.45
2023-12-30T18:52:40.890Z,47.55
2023-12-30T18:55:46.837Z,43.40
2023-12-30T18:58:51.738Z,41.85
2023-12-30T19:01:57.308Z,41.15
2023-12-30T19:06:37.476Z,43.70
2023-12-30T19:09:47.414Z,39.85
2023-12-30T19:12:51.170Z,41.10
2023-12-30T19:15:58.202Z,45.00
2023-12-30T19:19:01.259Z,41.20
2023-12-30T19:22:08.568Z,42.22
2023-12-30T19:25:16.207Z,44.47
2023-12-30T19:28:20.953Z,44.63
2023-12-30T19:31:26.057Z,48.80
2023-12-30T19:34:30.915Z,49.90
2023-12-30T19:37:33.782Z,49.03
2023-12-30T19:40:36.393Z,51.40
2023-12-30T19:43:38.977Z,45.10
2023-12-30T19:46:43.092Z,45.45
2023-12-30T19:49:45.934Z,48.08
2023-12-30T19:52:51.127Z,44.13
2023-12-30T19:55:53.767Z,41.28
2023-12-30T19:58:56.312Z,43.70
2023-12-30T20:02:05.513Z,47.00
2023-12-30T20:05:19.960Z,45.20
2023-12-30T20:08:27.329Z,47.38
2023-12-30T20:11:29.799Z,44.05
2023-12-30T20:14:38.004Z,48.05
2023-12-30T20:17:48.829Z,42.75
2023-12-30T20:20:52.119Z,46.22
2023-12-30T20:24:02.941Z,43.83
2023-12-30T20:27:08.148Z,42.22
2023-12-30T20:30:13.423Z,42.55
2023-12-30T20:33:16.995Z,38.65
2023-12-30T20:36:23.751Z,41.10
2023-12-30T20:39:26.282Z,43.15
2023-12-30T20:42:30.313Z,40.67
2023-12-30T20:45:39.492Z,44.00
2023-12-30T20:48:42.408Z,45.47
2023-12-30T20:51:51.536Z,46.13
2023-12-30T20:55:12.045Z,41.80
2023-12-30T20:58:27.901Z,41.63
2023-12-30T21:01:31.922Z,38.85
2023-12-30T21:04:43.292Z,44.80
2023-12-30T21:07:45.908Z,38.90
2023-12-30T21:10:48.614Z,42.83
2023-12-30T21:19:10.082Z,41.15
2023-12-30T21:22:14.708Z,39.40
2023-12-30T21:25:23.712Z,37.05
2023-12-30T21:28:31.713Z,41.50
2023-12-30T21:31:34.376Z,43.10
2023-12-30T21:34:36.897Z,41.85
2023-12-30T21:37:47.700Z,46.30
2023-12-30T21:40:51.098Z,45.88
2023-12-30T21:43:56.223Z,42.80
2023-12-30T21:46:58.864Z,46.40
2023-12-30T21:50:04.864Z,40.38
2023-12-30T21:53:25.284Z,43.95
2023-12-30T21:56:27.782Z,44.35
2023-12-30T21:59:33.434Z,48.33
2023-12-30T22:02:38.918Z,44.75
2023-12-30T22:05:42.614Z,46.08
2023-12-30T22:08:45.329Z,49.30
2023-12-30T22:11:47.867Z,40.65
2023-12-30T22:14:50.333Z,44.30
2023-12-30T22:17:53.493Z,47.42
2023-12-30T22:20:56.099Z,45.50
2023-12-30T22:23:58.494Z,52.08
2023-12-30T22:27:04.628Z,48.50
2023-12-30T22:30:10.227Z,49.42
2023-12-30T22:33:12.914Z,42.03
2023-12-30T22:36:15.855Z,44.65
2023-12-30T22:39:19.811Z,44.38
2023-12-30T22:42:22.330Z,44.30
2023-12-30T22:45:29.045Z,43.70
2023-12-30T22:48:31.725Z,36.75
2023-12-30T22:51:34.200Z,42.47
2023-12-30T22:54:38.923Z,41.67
2023-12-30T22:57:42.203Z,49.33
2023-12-30T23:00:46.758Z,46.72
2023-12-30T23:03:49.548Z,44.60
2023-12-30T23:06:54.711Z,46.80
2023-12-30T23:09:57.231Z,41.92
2023-12-30T23:13:01.784Z,44.45
2023-12-30T23:16:04.740Z,42.28
2023-12-30T23:19:11.904Z,42.78
2023-12-30T23:22:16.769Z,42.53
2023-12-30T23:25:19.279Z,45.38
2023-12-30T23:28:21.810Z,43.78
2023-12-30T23:31:24.448Z,42.25
2023-12-30T23:34:39.223Z,46.30
2023-12-30T23:37:57.630Z,42.72
2023-12-30T23:41:05.349Z,41.17
2023-12-30T23:44:10.514Z,41.08
2023-12-30T23:47:12.977Z,46.83
2023-12-30T23:50:18.223Z,41.25
2023-12-30T23:53:20.711Z,41.65
2023-12-30T23:56:25.593Z,41.00
2023-12-30T23:59:30.856Z,39.25
